Time;durP1;ratioP1;P1;durP2;ratioP2;P2;SDS_P1;SDS_P2;PMS_P1;PMS_P2;Temp;Humidity;BMP_temperature;BMP_pressure;BME280_temperature;BME280_humidity;BME280_pressure;Samples;Min_cycle;Max_cycle;Signal;HPM_P1;HPM_P2
2023/08/26 00:01:00;;;;;;;10.90;9.77;;;;;;;20.56;100.00;100590.13;6271959;28;20494;-72
2023/08/26 00:04:21;;;;;;;10.63;9.63;;;;;;;20.65;100.00;100593.53;6288593;28;20927;-72
2023/08/26 00:07:42;;;;;;;9.73;8.73;;;;;;;20.53;100.00;100593.28;6293801;28;20238;-73
2023/08/26 00:11:05;;;;;;;11.27;10.15;;;;;;;20.58;100.00;100592.66;6294017;28;20234;-73
2023/08/26 00:14:26;;;;;;;10.60;9.60;;;;;;;20.56;100.00;100592.03;6289038;28;20254;-72
2023/08/26 00:17:47;;;;;;;10.75;9.65;;;;;;;20.69;100.00;100584.66;6287221;28;20652;-74
2023/08/26 00:21:09;;;;;;;10.63;9.63;;;;;;;20.84;100.00;100583.63;6288951;28;20531;-73
2023/08/26 00:24:30;;;;;;;11.20;10.27;;;;;;;20.81;100.00;100584.88;6294201;28;20254;-74
2023/08/26 00:27:52;;;;;;;10.38;9.45;;;;;;;20.87;100.00;100580.47;6284600;28;20230;-72
2023/08/26 00:31:13;;;;;;;12.23;11.07;;;;;;;20.66;100.00;100587.81;6272009;28;20294;-72
2023/08/26 00:34:34;;;;;;;11.45;10.40;;;;;;;20.78;100.00;100588.03;6275648;28;20339;-75
2023/08/26 00:37:55;;;;;;;11.02;9.95;;;;;;;20.73;100.00;100583.19;6258482;28;20252;-73
2023/08/26 00:41:17;;;;;;;10.52;9.45;;;;;;;20.86;100.00;100581.53;6281635;28;20527;-73
2023/08/26 00:44:39;;;;;;;11.50;10.50;;;;;;;20.86;100.00;100573.31;6284280;28;20230;-74
2023/08/26 00:48:00;;;;;;;14.13;12.70;;;;;;;20.58;100.00;100573.47;6302667;28;20246;-73
2023/08/26 00:51:22;;;;;;;14.07;12.82;;;;;;;20.60;100.00;100579.59;6248665;28;20231;-74
2023/08/26 00:54:43;;;;;;;13.95;12.52;;;;;;;20.60;100.00;100572.22;6289415;28;20226;-73
2023/08/26 00:58:06;;;;;;;14.15;12.75;;;;;;;20.52;100.00;100583.38;6287276;28;21004;-72
2023/08/26 01:01:34;;;;;;;13.57;12.40;;;;;;;20.63;100.00;100574.53;6291358;28;20521;-71
2023/08/26 01:04:55;;;;;;;17.27;15.57;;;;;;;20.45;100.00;100571.56;6283013;28;20927;-71
2023/08/26 01:08:16;;;;;;;15.77;14.27;;;;;;;20.28;100.00;100564.75;6296893;28;20238;-73
2023/08/26 01:11:42;;;;;;;15.63;13.43;;;;;;;20.37;100.00;100576.38;6287591;28;20234;-72
2023/08/26 01:15:10;;;;;;;17.30;15.60;;;;;;;20.44;100.00;100572.59;6293900;28;20301;-71
2023/08/26 01:18:32;;;;;;;16.35;13.60;;;;;;;20.50;100.00;100587.38;6267210;28;20229;-72
2023/08/26 01:21:57;;;;;;;17.48;15.88;;;;;;;20.41;100.00;100575.75;6290597;28;20352;-73
2023/08/26 01:25:20;;;;;;;16.35;14.57;;;;;;;20.48;100.00;100579.38;6288505;28;20257;-73
2023/08/26 01:28:40;;;;;;;17.02;15.30;;;;;;;20.52;100.00;100580.66;6307055;28;20616;-72
2023/08/26 01:32:17;;;;;;;19.98;14.82;;;;;;;20.58;100.00;100581.69;6290754;28;20320;-73
2023/08/26 01:35:44;;;;;;;21.55;18.25;;;;;;;20.50;100.00;100574.53;6289862;28;20234;-73
2023/08/26 01:39:06;;;;;;;19.20;17.27;;;;;;;20.55;100.00;100582.94;6307769;28;20245;-74
2023/08/26 01:42:30;;;;;;;18.17;16.25;;;;;;;20.50;100.00;100574.53;6298331;28;20616;-72
2023/08/26 01:45:51;;;;;;;22.27;19.20;;;;;;;20.51;100.00;100570.72;6301046;28;20226;-72
2023/08/26 01:49:13;;;;;;;33.80;18.65;;;;;;;20.53;100.00;100565.03;6301188;28;21360;-72
2023/08/26 01:52:34;;;;;;;21.90;19.77;;;;;;;20.34;100.00;100561.19;6282651;28;21209;-71
2023/08/26 01:55:55;;;;;;;19.92;17.92;;;;;;;20.40;100.00;100562.28;6281153;28;20262;-72
2023/08/26 01:59:18;;;;;;;19.33;17.33;;;;;;;20.30;100.00;100564.56;6282107;28;20561;-72
2023/08/26 02:02:39;;;;;;;22.77;20.38;;;;;;;20.41;100.00;100562.06;6285300;28;20606;-72
2023/08/26 02:06:01;;;;;;;23.02;20.67;;;;;;;20.43;100.00;100557.22;6301517;28;20233;-72
2023/08/26 02:09:22;;;;;;;20.08;17.95;;;;;;;20.33;100.00;100561.41;6296253;28;20786;-71
2023/08/26 02:12:42;;;;;;;20.90;18.70;;;;;;;20.55;100.00;100565.66;6291514;28;20249;-71
2023/08/26 02:16:05;;;;;;;22.73;19.38;;;;;;;20.50;100.00;100555.34;6288612;28;20619;-71
2023/08/26 02:19:26;;;;;;;21.70;19.33;;;;;;;20.51;100.00;100550.69;6291084;28;20434;-72
2023/08/26 02:22:47;;;;;;;21.25;18.52;;;;;;;20.36;100.00;100555.53;6295599;28;20230;-72
2023/08/26 02:26:08;;;;;;;23.70;19.92;;;;;;;20.33;100.00;100562.25;6310707;28;20867;-72
2023/08/26 02:29:31;;;;;;;24.35;21.80;;;;;;;20.38;100.00;100567.94;6299545;28;20323;-72
2023/08/26 02:32:53;;;;;;;23.95;20.23;;;;;;;20.41;100.00;100567.53;6291338;28;20354;-71
2023/08/26 02:36:14;;;;;;;22.58;20.25;;;;;;;20.31;100.00;100566.25;6277032;28;20245;-70
2023/08/26 02:39:35;;;;;;;21.65;19.33;;;;;;;20.37;100.00;100570.91;6285182;28;20230;-71
2023/08/26 02:42:56;;;;;;;24.70;20.65;;;;;;;20.48;100.00;100562.09;6281000;28;25006;-71
2023/08/26 02:46:18;;;;;;;18.85;16.95;;;;;;;20.54;100.00;100553.88;6278756;28;20222;-73
2023/08/26 02:49:40;;;;;;;20.63;18.55;;;;;;;20.59;100.00;100550.50;6291450;28;20242;-72
2023/08/26 02:53:01;;;;;;;20.83;18.70;;;;;;;20.52;100.00;100544.19;6285524;28;20221;-71
2023/08/26 02:56:22;;;;;;;28.48;18.77;;;;;;;20.49;100.00;100547.31;6295588;28;20230;-73
2023/08/26 02:59:43;;;;;;;18.48;16.52;;;;;;;20.58;100.00;100544.19;6294886;28;20259;-72
2023/08/26 03:03:04;;;;;;;19.60;17.50;;;;;;;20.19;100.00;100548.72;6271849;28;20230;-72
2023/08/26 03:06:28;;;;;;;17.48;15.80;;;;;;;20.13;100.00;100549.53;6288210;28;20633;-72
2023/08/26 03:09:49;;;;;;;18.10;16.02;;;;;;;20.16;100.00;100562.81;6274382;28;21723;-72
2023/08/26 03:13:10;;;;;;;16.42;14.85;;;;;;;20.20;100.00;100559.47;6274977;28;20231;-72
2023/08/26 03:16:31;;;;;;;18.95;15.40;;;;;;;20.07;100.00;100555.84;6286488;28;20336;-72
2023/08/26 03:19:55;;;;;;;17.77;15.90;;;;;;;20.12;100.00;100562.38;6289204;28;20317;-71
2023/08/26 03:23:17;;;;;;;16.65;15.05;;;;;;;20.10;100.00;100559.00;6265727;28;20227;-72
2023/08/26 03:26:40;;;;;;;16.83;15.07;;;;;;;20.30;100.00;100559.06;6255124;28;20238;-72
2023/08/26 03:30:01;;;;;;;18.13;16.33;;;;;;;20.28;100.00;100559.28;6263815;28;20230;-72
2023/08/26 03:33:22;;;;;;;18.45;16.63;;;;;;;20.16;100.00;100557.31;6274982;28;20238;-72
2023/08/26 03:36:43;;;;;;;18.50;16.52;;;;;;;20.17;100.00;100567.25;6283134;28;20226;-73
2023/08/26 03:40:09;;;;;;;20.83;17.55;;;;;;;19.80;100.00;100574.03;6279865;28;20238;-69
2023/08/26 03:43:30;;;;;;;20.83;18.63;;;;;;;19.92;100.00;100570.50;6273367;28;20496;-71
2023/08/26 03:46:52;;;;;;;22.88;19.67;;;;;;;19.93;100.00;100558.53;6285335;28;20218;-72
2023/08/26 03:50:13;;;;;;;23.42;20.00;;;;;;;20.03;100.00;100562.75;6272060;28;20221;-72
2023/08/26 03:53:36;;;;;;;26.00;21.23;;;;;;;20.03;100.00;100557.28;6277892;28;20250;-72
2023/08/26 03:56:58;;;;;;;20.33;18.23;;;;;;;20.10;100.00;100553.53;6278588;28;21583;-71
2023/08/26 04:00:19;;;;;;;18.02;16.13;;;;;;;20.25;100.00;100562.47;6298073;28;20222;-71
2023/08/26 04:03:42;;;;;;;19.55;16.98;;;;;;;20.04;100.00;100567.19;6287469;28;20234;-72
2023/08/26 04:07:03;;;;;;;18.50;16.58;;;;;;;19.89;100.00;100565.47;6289959;28;20652;-71
2023/08/26 04:10:24;;;;;;;17.77;15.95;;;;;;;20.19;100.00;100566.00;6297689;28;20230;-72
2023/08/26 04:13:46;;;;;;;19.52;17.50;;;;;;;20.15;100.00;100574.81;6292450;28;20314;-73
2023/08/26 04:17:06;;;;;;;18.33;16.40;;;;;;;20.15;100.00;100566.59;6299873;28;21340;-73
2023/08/26 04:20:28;;;;;;;18.45;15.65;;;;;;;19.91;100.00;100577.03;6307856;28;20230;-71
2023/08/26 04:23:49;;;;;;;15.57;13.98;;;;;;;20.33;100.00;100567.75;6283434;28;20234;-72
2023/08/26 04:27:09;;;;;;;14.90;13.35;;;;;;;20.06;100.00;100576.03;6277613;28;20321;-72
2023/08/26 04:30:33;;;;;;;17.23;15.20;;;;;;;20.07;100.00;100575.81;6298749;28;20607;-71
2023/08/26 04:33:55;;;;;;;16.92;14.45;;;;;;;19.99;100.00;100581.47;6303291;28;20234;-71
2023/08/26 04:37:16;;;;;;;20.30;16.30;;;;;;;19.99;100.00;100589.69;6300835;28;20321;-72
2023/08/26 04:40:36;;;;;;;27.02;19.25;;;;;;;19.82;100.00;100583.72;6287900;28;20689;-72
2023/08/26 04:43:57;;;;;;;18.75;16.48;;;;;;;19.89;100.00;100589.22;6273257;28;20222;-72
2023/08/26 04:47:22;;;;;;;20.33;17.80;;;;;;;20.03;100.00;100590.97;6269603;28;20313;-73
2023/08/26 04:50:44;;;;;;;21.65;17.73;;;;;;;19.88;100.00;100587.53;6281978;28;20230;-72
2023/08/26 04:54:06;;;;;;;21.67;19.08;;;;;;;19.93;100.00;100596.84;6285323;28;20231;-72
2023/08/26 04:57:27;;;;;;;23.10;17.67;;;;;;;19.89;100.00;100586.50;6267542;28;20604;-71
2023/08/26 05:00:47;;;;;;;21.23;17.92;;;;;;;20.05;100.00;100590.78;6274393;28;20765;-73
2023/08/26 05:04:11;;;;;;;25.50;18.42;;;;;;;19.93;100.00;100590.50;6261889;28;20241;-72
2023/08/26 05:07:33;;;;;;;23.63;18.30;;;;;;;20.10;100.00;100599.22;6253352;28;20241;-72
2023/08/26 05:10:54;;;;;;;20.60;16.08;;;;;;;20.11;100.00;100604.47;6286226;28;20257;-71
2023/08/26 05:14:15;;;;;;;16.50;14.25;;;;;;;20.28;100.00;100605.84;6278674;28;20581;-73
2023/08/26 05:17:35;;;;;;;18.30;15.52;;;;;;;20.36;100.00;100608.38;6274587;28;20229;-73
2023/08/26 05:20:58;;;;;;;16.77;14.93;;;;;;;20.03;100.00;100607.38;6303652;28;20222;-71
2023/08/26 05:24:18;;;;;;;14.57;12.93;;;;;;;20.14;100.00;100609.56;6286611;28;20532;-71
2023/08/26 05:27:40;;;;;;;14.35;11.77;;;;;;;20.02;100.00;100627.63;6282282;28;21517;-70
2023/08/26 05:31:03;;;;;;;16.25;12.90;;;;;;;19.88;100.00;100609.41;6285201;28;20235;-72
2023/08/26 05:34:24;;;;;;;16.27;13.25;;;;;;;19.99;100.00;100611.59;6286793;28;20553;-71
2023/08/26 05:37:47;;;;;;;13.98;12.38;;;;;;;19.90;100.00;100615.56;6262542;28;20227;-71
2023/08/26 05:41:10;;;;;;;15.75;13.05;;;;;;;19.77;100.00;100621.81;6249653;28;20235;-71
2023/08/26 05:44:31;;;;;;;16.42;10.10;;;;;;;20.11;100.00;100644.72;6283406;28;20238;-72
2023/08/26 05:47:52;;;;;;;15.50;13.18;;;;;;;19.89;100.00;100633.88;6285401;28;20219;-71
2023/08/26 05:51:13;;;;;;;14.07;11.93;;;;;;;20.14;100.00;100638.81;6278510;28;20230;-71
2023/08/26 05:54:35;;;;;;;13.90;12.50;;;;;;;20.09;100.00;100641.34;6283005;28;20234;-72
2023/08/26 05:57:58;;;;;;;15.20;13.27;;;;;;;20.13;100.00;100643.44;6289337;28;20233;-70
2023/08/26 06:01:19;;;;;;;12.48;11.23;;;;;;;20.16;100.00;100639.44;6266546;28;20234;-70
2023/08/26 06:04:40;;;;;;;13.05;11.50;;;;;;;20.17;100.00;100636.50;6290451;28;20230;-70
2023/08/26 06:08:01;;;;;;;12.32;11.07;;;;;;;20.53;100.00;100645.31;6298440;28;20242;-71
2023/08/26 06:11:24;;;;;;;11.65;10.40;;;;;;;20.59;100.00;100643.63;6261434;28;20231;-69
2023/08/26 06:14:45;;;;;;;13.65;12.23;;;;;;;20.75;100.00;100656.13;6282815;28;20510;-69
2023/08/26 06:18:08;;;;;;;14.73;12.85;;;;;;;20.52;99.02;100659.22;6289408;28;20261;-69
2023/08/26 06:21:30;;;;;;;10.20;9.02;;;;;;;20.38;98.84;100666.53;6289832;28;20230;-66
2023/08/26 06:24:50;;;;;;;15.35;13.27;;;;;;;20.01;99.03;100679.78;6301761;28;20226;-69
2023/08/26 06:28:12;;;;;;;12.27;10.48;;;;;;;20.33;99.17;100677.28;6273242;28;20620;-68
2023/08/26 06:31:33;;;;;;;12.68;11.13;;;;;;;20.43;98.77;100683.22;6290953;28;20242;-69
2023/08/26 06:34:54;;;;;;;11.98;9.77;;;;;;;20.31;98.06;100675.78;6299229;28;20226;-68
2023/08/26 06:38:15;;;;;;;11.70;10.50;;;;;;;20.21;97.59;100687.13;6261252;28;20238;-67
2023/08/26 06:41:36;;;;;;;12.90;10.27;;;;;;;20.34;97.31;100689.91;6285921;28;20249;-67
2023/08/26 06:44:59;;;;;;;9.98;9.02;;;;;;;20.43;96.66;100705.13;6273962;28;20561;-67
2023/08/26 06:48:20;;;;;;;10.18;9.18;;;;;;;20.12;95.35;100701.13;6267693;28;20226;-69
2023/08/26 06:51:42;;;;;;;8.38;7.55;;;;;;;19.86;95.29;100712.75;6241760;28;20234;-70
2023/08/26 06:55:04;;;;;;;8.90;7.75;;;;;;;20.03;95.19;100716.88;6286088;28;20309;-69
2023/08/26 06:58:25;;;;;;;9.38;7.15;;;;;;;20.43;94.06;100716.06;6278914;28;20234;-71
2023/08/26 07:01:47;;;;;;;7.50;6.75;;;;;;;19.74;93.99;100725.31;6280311;28;20287;-69
2023/08/26 07:05:08;;;;;;;6.63;6.00;;;;;;;20.27;92.67;100724.66;6283028;28;20230;-70
2023/08/26 07:08:29;;;;;;;9.20;6.75;;;;;;;20.62;91.60;100719.94;6299953;28;20231;-69
2023/08/26 07:11:50;;;;;;;7.63;6.75;;;;;;;20.57;91.40;100720.56;6297948;28;20316;-70
2023/08/26 07:15:11;;;;;;;13.23;6.22;;;;;;;20.81;90.01;100721.91;6305183;28;20469;-70
2023/08/26 07:18:33;;;;;;;7.18;6.47;;;;;;;20.79;88.70;100728.66;6280995;28;20234;-69
2023/08/26 07:21:54;;;;;;;5.53;4.93;;;;;;;21.49;87.68;100718.88;6294490;28;20288;-70
2023/08/26 07:25:15;;;;;;;6.43;5.80;;;;;;;21.75;85.16;100720.78;6296196;28;20243;-71
2023/08/26 07:28:36;;;;;;;6.03;5.43;;;;;;;21.72;84.41;100725.84;6277887;28;20230;-70
2023/08/26 07:31:56;;;;;;;4.97;4.22;;;;;;;21.40;84.91;100724.81;6284059;28;20271;-71
2023/08/26 07:35:19;;;;;;;4.78;4.28;;;;;;;21.51;84.56;100724.16;6278615;28;20622;-70
2023/08/26 07:38:41;;;;;;;4.55;4.13;;;;;;;21.60;83.54;100728.38;6280105;28;20321;-72
2023/08/26 07:42:03;;;;;;;5.00;3.40;;;;;;;21.87;82.05;100738.31;6285874;28;20230;-72
2023/08/26 07:45:24;;;;;;;4.28;3.92;;;;;;;21.64;80.38;100739.78;6285965;28;22068;-68
2023/08/26 07:48:45;;;;;;;4.03;3.70;;;;;;;21.83;80.54;100741.72;6267037;28;20812;-69
2023/08/26 07:52:07;;;;;;;4.68;4.28;;;;;;;21.48;80.83;100744.66;6271647;28;20238;-69
2023/08/26 07:55:29;;;;;;;5.20;4.07;;;;;;;21.30;81.51;100749.03;6266880;28;20230;-70
2023/08/26 07:58:50;;;;;;;3.88;3.42;;;;;;;21.65;80.46;100753.31;6267966;28;20222;-70
2023/08/26 08:02:11;;;;;;;4.63;3.97;;;;;;;21.81;79.51;100755.63;6249894;28;20250;-76
2023/08/26 08:05:32;;;;;;;4.90;3.20;;;;;;;21.69;78.43;100756.47;6284564;28;20249;-73
2023/08/26 08:08:54;;;;;;;3.03;2.78;;;;;;;21.16;77.85;100755.56;6286879;28;20229;-69
2023/08/26 08:12:15;;;;;;;8.65;3.80;;;;;;;21.18;78.32;100764.41;6272643;28;20356;-67
2023/08/26 08:15:37;;;;;;;3.95;3.47;;;;;;;21.44;78.02;100762.56;6277380;28;20238;-68
2023/08/26 08:18:58;;;;;;;3.67;3.38;;;;;;;20.91;79.09;100760.72;6280996;28;20226;-68
2023/08/26 08:22:35;;;;;;;4.25;3.50;;;;;;;20.92;79.86;100770.66;6261313;28;20229;-67
2023/08/26 08:25:57;;;;;;;3.42;3.15;;;;;;;21.27;79.79;100768.66;6302607;28;20542;-67
2023/08/26 08:29:20;;;;;;;2.53;2.28;;;;;;;21.16;77.37;100769.25;6284526;28;20257;-67
2023/08/26 08:32:41;;;;;;;2.88;2.47;;;;;;;21.10;76.24;100781.06;6291144;28;20246;-67
2023/08/26 08:36:03;;;;;;;3.00;2.70;;;;;;;20.99;76.56;100782.47;6292654;28;20234;-68
2023/08/26 08:39:24;;;;;;;3.33;2.47;;;;;;;21.07;76.35;100790.53;6276591;28;20226;-68
2023/08/26 08:42:48;;;;;;;2.33;2.13;;;;;;;20.80;76.61;100788.72;6284265;28;20230;-67
2023/08/26 08:46:09;;;;;;;3.53;2.40;;;;;;;20.90;76.69;100786.47;6291322;28;20541;-67
2023/08/26 08:49:31;;;;;;;3.63;3.05;;;;;;;20.76;77.98;100789.34;6267272;28;20543;-68
2023/08/26 08:52:55;;;;;;;3.10;2.80;;;;;;;20.45;78.40;100796.16;6290947;28;20250;-68
2023/08/26 08:56:17;;;;;;;2.65;2.42;;;;;;;20.36;78.77;100794.59;6278994;28;20230;-69
2023/08/26 08:59:40;;;;;;;3.20;2.35;;;;;;;20.18;79.27;100813.41;6294913;28;20231;-68
2023/08/26 09:03:05;;;;;;;2.80;2.45;;;;;;;20.04;78.73;100821.72;6286136;28;20233;-67
2023/08/26 09:06:26;;;;;;;2.88;2.65;;;;;;;19.95;78.81;100826.50;6307834;28;20219;-68
2023/08/26 09:09:47;;;;;;;3.00;2.47;;;;;;;20.25;78.33;100829.94;6281350;28;20294;-68
2023/08/26 09:13:10;;;;;;;2.67;2.38;;;;;;;20.27;77.53;100825.09;6258768;28;20231;-68
2023/08/26 09:16:36;;;;;;;3.38;2.90;;;;;;;19.91;78.76;100823.31;6297052;28;20316;-67
2023/08/26 09:19:59;;;;;;;3.58;2.28;;;;;;;20.27;77.11;100825.97;6295117;28;20239;-68
2023/08/26 09:23:20;;;;;;;3.33;2.38;;;;;;;20.30;75.12;100817.31;6273680;28;20248;-68
2023/08/26 09:26:41;;;;;;;5.18;2.03;;;;;;;20.25;74.23;100822.56;6284759;28;20556;-67
2023/08/26 09:30:04;;;;;;;2.67;2.10;;;;;;;20.69;74.03;100819.47;6280395;28;20234;-67
2023/08/26 09:33:26;;;;;;;3.47;2.13;;;;;;;20.73;73.67;100828.13;6275689;28;20246;-68
2023/08/26 09:36:49;;;;;;;5.30;2.92;;;;;;;21.18;72.60;100825.59;6279986;28;20465;-68
2023/08/26 09:40:13;;;;;;;2.67;1.88;;;;;;;21.24;72.39;100830.25;6273120;28;21337;-67
2023/08/26 09:43:35;;;;;;;2.38;2.15;;;;;;;21.05;71.89;100827.47;6265859;28;20226;-68
2023/08/26 09:46:57;;;;;;;6.30;1.77;;;;;;;21.31;70.93;100831.13;6263412;28;21563;-67
2023/08/26 09:50:30;;;;;;;2.55;1.40;;;;;;;21.80;69.86;100829.94;6283890;28;20642;-67
2023/08/26 09:53:53;;;;;;;4.05;2.20;;;;;;;21.06;71.32;100832.72;6292611;28;20429;-68
2023/08/26 09:57:13;;;;;;;2.83;2.63;;;;;;;21.51;69.62;100831.16;6281821;28;20238;-67
2023/08/26 10:00:34;;;;;;;2.00;1.63;;;;;;;20.98;69.87;100838.38;6290136;28;21663;-68
2023/08/26 10:04:04;;;;;;;3.08;1.92;;;;;;;21.00;69.75;100841.75;6292412;28;20316;-68
2023/08/26 10:07:28;;;;;;;4.78;2.08;;;;;;;20.51;71.27;100852.84;6294473;28;21941;-66
2023/08/26 10:10:53;;;;;;;2.05;1.85;;;;;;;20.92;70.13;100849.28;6300014;28;20238;-67
2023/08/26 10:14:15;;;;;;;2.00;1.50;;;;;;;21.81;68.73;100859.94;6283322;28;20246;-68
2023/08/26 10:17:40;;;;;;;2.97;2.00;;;;;;;21.29;67.89;100859.81;6297938;28;20328;-68
2023/08/26 10:21:02;;;;;;;4.35;2.58;;;;;;;20.85;68.30;100870.34;6295400;28;20572;-67
2023/08/26 10:24:24;;;;;;;2.50;1.90;;;;;;;21.09;68.07;100878.91;6286861;28;20238;-67
2023/08/26 10:27:46;;;;;;;5.22;2.58;;;;;;;21.66;68.30;100872.97;6278919;28;20278;-67
2023/08/26 10:31:07;;;;;;;1.92;1.83;;;;;;;21.26;66.41;100872.03;6286434;28;20227;-67
2023/08/26 10:34:31;;;;;;;4.82;4.03;;;;;;;21.47;67.30;100880.13;6289831;27;20230;-66
2023/08/26 10:37:53;;;;;;;3.00;2.45;;;;;;;21.55;65.64;100883.75;6276435;28;20737;-64
2023/08/26 10:41:15;;;;;;;2.22;1.73;;;;;;;21.59;65.70;100880.34;6259217;28;20321;-65
2023/08/26 10:44:38;;;;;;;2.65;1.95;;;;;;;21.14;66.55;100892.88;6258969;28;20230;-65
2023/08/26 10:48:00;;;;;;;2.00;1.42;;;;;;;21.16;67.20;100890.78;6279035;28;20317;-65
2023/08/26 10:51:20;;;;;;;3.28;2.05;;;;;;;21.23;67.44;100885.31;6290726;28;20771;-65
2023/08/26 10:54:43;;;;;;;5.00;1.83;;;;;;;21.56;66.42;100886.28;6269951;28;21530;-63
2023/08/26 10:58:12;;;;;;;1.73;1.45;;;;;;;22.52;62.36;100884.88;6277725;28;20237;-65
2023/08/26 11:01:36;;;;;;;2.80;2.33;;;;;;;22.98;60.48;100888.41;6286270;28;20238;-64
2023/08/26 11:04:57;;;;;;;3.35;2.05;;;;;;;23.58;55.39;100898.97;6260645;28;20482;-64
2023/08/26 11:08:18;;;;;;;1.77;1.48;;;;;;;23.90;54.99;100885.19;6268646;28;20234;-66
2023/08/26 11:11:39;;;;;;;6.80;1.23;;;;;;;23.59;54.92;100881.34;6287447;28;20256;-66
2023/08/26 11:15:05;;;;;;;1.15;1.15;;;;;;;23.71;54.59;100881.53;6283977;28;20461;-65
2023/08/26 11:18:26;;;;;;;1.95;1.13;;;;;;;24.09;54.35;100874.09;6265144;28;20238;-65
2023/08/26 11:21:48;;;;;;;2.35;1.55;;;;;;;23.05;56.08;100883.72;6266095;28;20749;-66
2023/08/26 11:25:12;;;;;;;2.17;1.58;;;;;;;22.49;57.88;100885.31;6277944;28;20325;-66
2023/08/26 11:28:33;;;;;;;1.95;1.23;;;;;;;22.74;58.84;100889.94;6269865;28;20309;-67
2023/08/26 11:31:56;;;;;;;1.60;1.50;;;;;;;21.92;57.69;100885.94;6287898;28;20234;-64
2023/08/26 11:35:18;;;;;;;2.08;0.93;;;;;;;22.62;58.53;100888.91;6289064;28;20230;-66
2023/08/26 11:38:39;;;;;;;1.05;0.95;;;;;;;23.63;55.74;100896.41;6284455;28;20238;-65
2023/08/26 11:42:00;;;;;;;1.75;1.20;;;;;;;24.28;54.20;100905.28;6275281;28;20230;-65
2023/08/26 11:45:21;;;;;;;2.22;1.48;;;;;;;25.04;53.08;100901.16;6289374;28;20642;-65
2023/08/26 11:48:43;;;;;;;0.93;0.80;;;;;;;27.82;45.05;100895.13;6287496;28;20249;-66
2023/08/26 11:52:05;;;;;;;1.85;0.98;;;;;;;26.88;43.66;100899.25;6287511;28;20226;-65
2023/08/26 11:55:28;;;;;;;1.60;1.30;;;;;;;26.68;43.66;100901.53;6283608;28;20238;-65
2023/08/26 11:58:49;;;;;;;2.30;1.05;;;;;;;29.27;41.23;100895.91;6282411;28;20214;-66
2023/08/26 12:02:22;;;;;;;1.55;0.93;;;;;;;28.37;41.50;100899.75;6291191;28;20390;-66
2023/08/26 12:05:46;;;;;;;0.70;0.70;;;;;;;26.32;44.46;100915.56;6293993;28;20226;-65
2023/08/26 12:09:07;;;;;;;1.70;1.17;;;;;;;25.04;48.53;100919.63;6289755;28;20712;-66
2023/08/26 12:12:29;;;;;;;1.20;1.10;;;;;;;26.99;45.80;100914.16;6292020;28;20226;-65
2023/08/26 12:15:50;;;;;;;1.38;1.00;;;;;;;28.90;43.74;100915.91;6297543;28;20257;-66
2023/08/26 12:19:14;;;;;;;2.17;1.30;;;;;;;26.28;46.46;100930.94;6285513;28;20819;-65
2023/08/26 12:22:40;;;;;;;2.33;1.52;;;;;;;25.06;49.03;100928.50;6292226;28;20262;-66
2023/08/26 12:26:11;;;;;;;0.90;0.90;;;;;;;21.92;55.68;100936.22;6285619;28;20226;-65
2023/08/26 12:29:32;;;;;;;1.77;1.10;;;;;;;21.23;59.32;100934.69;6288284;28;20233;-65
2023/08/26 12:32:52;;;;;;;1.30;1.20;;;;;;;22.12;58.32;100941.72;6290239;28;20711;-64
2023/08/26 12:36:13;;;;;;;5.20;1.38;;;;;;;21.97;58.48;100938.31;6303015;28;20278;-64
2023/08/26 12:39:35;;;;;;;1.40;1.30;;;;;;;22.39;58.08;100940.69;6298232;28;20333;-65
2023/08/26 12:42:56;;;;;;;2.15;1.30;;;;;;;22.50;57.24;100947.44;6286451;28;20254;-66
2023/08/26 12:46:17;;;;;;;0.98;0.98;;;;;;;22.37;57.65;100940.06;6299117;28;20258;-66
2023/08/26 12:49:38;;;;;;;1.27;1.17;;;;;;;22.59;57.77;100948.97;6277205;28;20310;-67
2023/08/26 12:52:59;;;;;;;1.55;1.27;;;;;;;22.93;56.16;100959.69;6283609;28;20230;-67
2023/08/26 12:56:22;;;;;;;2.60;1.50;;;;;;;24.78;54.24;100950.25;6301140;28;20694;-66
2023/08/26 12:59:43;;;;;;;1.42;1.13;;;;;;;25.18;53.11;100957.88;6285726;28;20229;-66
2023/08/26 13:03:04;;;;;;;2.78;1.80;;;;;;;24.62;52.60;100957.16;6275591;28;20231;-66
2023/08/26 13:06:25;;;;;;;4.25;1.90;;;;;;;25.82;50.90;100960.09;6300095;28;20226;-67
2023/08/26 13:09:46;;;;;;;2.20;1.92;;;;;;;28.15;48.10;100961.78;6272235;28;20227;-67
2023/08/26 13:13:08;;;;;;;3.00;1.85;;;;;;;25.94;50.41;100965.66;6279029;28;20250;-65
2023/08/26 13:16:29;;;;;;;3.88;2.17;;;;;;;27.72;49.61;100954.00;6288106;28;20571;-65
2023/08/26 13:19:51;;;;;;;2.42;1.92;;;;;;;29.00;46.26;100951.28;6273388;28;20668;-66
2023/08/26 13:23:12;;;;;;;3.22;2.92;;;;;;;26.05;49.13;100949.13;6275345;28;20238;-67
2023/08/26 13:26:33;;;;;;;3.75;2.85;;;;;;;24.51;55.02;100947.69;6284563;28;20230;-67
2023/08/26 13:29:55;;;;;;;3.97;2.85;;;;;;;25.26;51.28;100937.44;6272100;28;20230;-65
2023/08/26 13:33:16;;;;;;;3.95;2.20;;;;;;;27.10;47.75;100954.84;6269871;28;20357;-66
2023/08/26 13:36:37;;;;;;;3.58;2.28;;;;;;;26.26;49.00;100956.06;6287858;28;20357;-66
2023/08/26 13:39:58;;;;;;;2.55;2.10;;;;;;;27.09;47.91;100953.13;6269385;28;20234;-67
2023/08/26 13:43:19;;;;;;;2.28;1.77;;;;;;;26.40;50.15;100943.72;6283406;28;20238;-66
2023/08/26 13:46:42;;;;;;;3.58;2.53;;;;;;;25.57;51.96;100948.31;6296927;28;20226;-65
2023/08/26 13:50:02;;;;;;;4.50;1.98;;;;;;;27.93;47.79;100933.91;6289920;28;20631;-66
2023/08/26 13:53:23;;;;;;;3.45;2.30;;;;;;;26.73;48.11;100934.84;6260284;28;20760;-65
2023/08/26 13:56:44;;;;;;;3.80;2.17;;;;;;;24.56;52.70;100938.75;6280289;28;20242;-66
2023/08/26 14:00:07;;;;;;;2.95;2.50;;;;;;;26.32;50.62;100924.69;6301887;28;20350;-65
2023/08/26 14:03:34;;;;;;;2.42;1.98;;;;;;;27.92;46.67;100932.22;6272530;28;20269;-66
2023/08/26 14:06:55;;;;;;;2.83;2.63;;;;;;;28.66;45.88;100942.19;6298587;28;20582;-65
2023/08/26 14:10:16;;;;;;;3.58;2.83;;;;;;;26.79;48.82;100937.50;6286611;28;20230;-66
2023/08/26 14:13:38;;;;;;;4.38;2.53;;;;;;;25.69;49.96;100938.16;6272928;28;20231;-66
2023/08/26 14:16:58;;;;;;;3.00;2.80;;;;;;;26.42;48.76;100937.94;6275483;28;20242;-66
2023/08/26 14:20:21;;;;;;;3.10;2.75;;;;;;;26.95;48.04;100946.19;6286171;28;20253;-66
2023/08/26 14:23:42;;;;;;;3.95;3.65;;;;;;;26.70;48.63;100949.16;6262624;28;20580;-66
2023/08/26 14:27:02;;;;;;;3.67;3.22;;;;;;;27.39;47.19;100954.69;6276709;28;20250;-66
2023/08/26 14:30:23;;;;;;;6.53;3.97;;;;;;;26.17;49.41;100951.09;6286665;28;20234;-66
2023/08/26 14:33:45;;;;;;;6.13;4.53;;;;;;;24.18;54.24;100955.38;6275272;28;20246;-66
2023/08/26 14:37:07;;;;;;;3.88;3.40;;;;;;;25.35;52.91;100958.97;6277173;28;20536;-65
2023/08/26 14:40:28;;;;;;;4.40;4.00;;;;;;;24.33;54.22;100949.53;6289742;28;20253;-66
2023/08/26 14:43:49;;;;;;;4.60;4.18;;;;;;;23.20;57.68;100971.50;6275985;28;20260;-65
2023/08/26 14:47:10;;;;;;;3.70;3.28;;;;;;;23.69;57.30;100971.75;6276980;28;20492;-65
2023/08/26 14:50:31;;;;;;;4.47;4.07;;;;;;;22.74;60.29;100969.66;6283610;28;20593;-66
2023/08/26 14:53:53;;;;;;;3.95;3.65;;;;;;;23.27;59.32;100967.66;6268650;28;20631;-65
2023/08/26 14:57:14;;;;;;;5.93;4.03;;;;;;;23.12;58.16;100953.31;6279563;28;22240;-66
2023/08/26 15:00:35;;;;;;;3.42;2.75;;;;;;;23.60;57.00;100951.03;6292412;28;20234;-66
2023/08/26 15:03:56;;;;;;;3.38;3.08;;;;;;;23.79;56.29;100950.94;6277773;28;20263;-65
2023/08/26 15:07:17;;;;;;;4.38;3.35;;;;;;;23.24;57.30;100956.25;6278495;28;20234;-64
2023/08/26 15:10:41;;;;;;;4.93;2.75;;;;;;;23.26;56.88;100956.88;6304900;28;20310;-65
2023/08/26 15:14:02;;;;;;;2.83;2.10;;;;;;;23.20;57.42;100957.75;6277356;28;20238;-65
2023/08/26 15:17:23;;;;;;;2.88;2.67;;;;;;;22.70;58.22;100962.06;6293262;28;20234;-64
2023/08/26 15:20:44;;;;;;;3.30;2.40;;;;;;;23.01;57.54;100959.47;6295143;28;20234;-65
2023/08/26 15:24:05;;;;;;;4.32;2.30;;;;;;;23.37;56.63;100965.31;6263157;28;20250;-65